Time;durP1;ratioP1;P1;durP2;ratioP2;P2;SDS_P1;SDS_P2;PMS_P1;PMS_P2;Temp;Humidity;BMP_temperature;BMP_pressure;BME280_temperature;BME280_humidity;BME280_pressure;Samples;Min_cycle;Max_cycle;Signal;HPM_P1;HPM_P2
2021/12/27 00:00:11;;;;;;;18.40;10.40;;;0.30;99.90;;;;;;5077584;28;20040;-68
2021/12/27 00:02:38;;;;;;;19.15;11.25;;;0.20;99.90;;;;;;5111594;28;20427;-68
2021/12/27 00:05:04;;;;;;;17.75;10.82;;;0.30;99.90;;;;;;5100416;28;20051;-68
2021/12/27 00:07:30;;;;;;;15.50;8.75;;;0.30;99.90;;;;;;5097064;28;20035;-68
2021/12/27 00:09:55;;;;;;;18.30;9.73;;;0.20;99.90;;;;;;5094638;28;20052;-68
2021/12/27 00:12:21;;;;;;;19.40;10.77;;;0.30;99.90;;;;;;5125094;27;20040;-68
2021/12/27 00:14:47;;;;;;;19.15;10.32;;;0.20;99.90;;;;;;5147516;27;20027;-68
2021/12/27 00:17:12;;;;;;;17.98;10.85;;;0.20;99.90;;;;;;5147366;27;20433;-68
2021/12/27 00:19:38;;;;;;;20.30;11.35;;;0.00;99.90;;;;;;5115091;28;20043;-68
2021/12/27 00:22:03;;;;;;;19.73;11.48;;;-0.10;99.90;;;;;;5146985;27;20054;-68
2021/12/27 00:24:29;;;;;;;19.42;9.85;;;-0.10;99.90;;;;;;5130412;27;20077;-68
2021/12/27 00:26:55;;;;;;;19.17;11.57;;;0.00;99.90;;;;;;5114948;28;20044;-68
2021/12/27 00:29:21;;;;;;;18.95;11.40;;;0.00;99.90;;;;;;5113845;28;20114;-68
2021/12/27 00:31:47;;;;;;;20.30;11.30;;;0.10;99.90;;;;;;5104760;28;20058;-68
2021/12/27 00:34:13;;;;;;;18.77;11.00;;;0.10;99.90;;;;;;5096212;28;20035;-68
2021/12/27 00:36:38;;;;;;;18.45;9.82;;;0.00;99.90;;;;;;5131715;27;20038;-68
2021/12/27 00:39:04;;;;;;;20.20;10.30;;;0.00;99.90;;;;;;5113557;28;20051;-68
2021/12/27 00:41:30;;;;;;;21.00;10.80;;;0.00;99.90;;;;;;5095759;28;20063;-68
2021/12/27 00:43:56;;;;;;;20.60;11.68;;;0.00;99.90;;;;;;5114531;27;20055;-68
2021/12/27 00:46:21;;;;;;;19.25;12.02;;;0.00;99.90;;;;;;5094024;28;20089;-68
2021/12/27 00:48:47;;;;;;;17.48;9.93;;;0.10;99.90;;;;;;5110571;27;20404;-68
2021/12/27 00:51:12;;;;;;;16.55;9.98;;;0.10;99.90;;;;;;5127880;27;20043;-68
2021/12/27 00:53:38;;;;;;;21.05;10.80;;;0.00;99.90;;;;;;5121639;27;20497;-68
2021/12/27 00:56:04;;;;;;;17.20;9.95;;;0.10;99.90;;;;;;5130429;27;20047;-68
2021/12/27 00:58:30;;;;;;;17.77;10.27;;;0.20;99.90;;;;;;5148579;27;20157;-68
2021/12/27 01:00:55;;;;;;;18.98;11.02;;;0.20;99.90;;;;;;5107243;28;20074;-68
2021/12/27 01:03:21;;;;;;;19.63;11.57;;;0.20;99.90;;;;;;5109850;28;20071;-68
2021/12/27 01:05:47;;;;;;;17.58;10.70;;;0.20;99.90;;;;;;5090908;28;20042;-68
2021/12/27 01:08:13;;;;;;;17.98;11.10;;;0.20;99.90;;;;;;5110933;28;20488;-68
2021/12/27 01:13:36;;;;;;;20.27;11.13;;;0.20;99.90;;;;;;5127530;27;20048;-68
2021/12/27 01:16:10;;;;;;;17.63;10.48;;;0.10;99.90;;;;;;5108553;28;20043;-68
2021/12/27 01:18:40;;;;;;;20.73;11.63;;;0.10;99.90;;;;;;5111591;28;20047;-68
2021/12/27 01:21:05;;;;;;;19.02;11.23;;;0.20;99.90;;;;;;5113820;28;20403;-68
2021/12/27 01:23:31;;;;;;;20.58;11.57;;;0.20;99.90;;;;;;5146881;27;20032;-68
2021/12/27 01:25:56;;;;;;;20.17;11.55;;;0.20;99.90;;;;;;5130951;27;20503;-68
2021/12/27 01:28:22;;;;;;;18.85;11.02;;;0.10;99.90;;;;;;5129200;27;20040;-68
2021/12/27 01:30:49;;;;;;;17.45;10.68;;;0.10;99.90;;;;;;5113386;28;20075;-68
2021/12/27 01:33:18;;;;;;;21.02;10.85;;;0.10;99.90;;;;;;5095580;28;20046;-68
2021/12/27 01:35:44;;;;;;;19.33;11.38;;;0.20;99.90;;;;;;5113473;28;20036;-68
2021/12/27 01:38:12;;;;;;;18.20;11.55;;;0.20;99.90;;;;;;5112444;28;20040;-68
2021/12/27 01:40:39;;;;;;;18.73;11.20;;;0.10;99.90;;;;;;5112967;28;20511;-68
2021/12/27 01:43:17;;;;;;;18.85;11.48;;;0.20;99.90;;;;;;5082034;28;20492;-68
2021/12/27 01:45:49;;;;;;;19.75;11.05;;;0.20;99.90;;;;;;5113282;28;20035;-68
2021/12/27 01:48:20;;;;;;;18.80;10.90;;;0.10;99.90;;;;;;5079562;28;20044;-68
2021/12/27 01:50:47;;;;;;;16.35;9.27;;;0.10;99.90;;;;;;5093201;28;20051;-68
2021/12/27 01:53:14;;;;;;;18.67;10.38;;;0.10;99.90;;;;;;5092884;28;20046;-68
2021/12/27 01:55:40;;;;;;;20.88;12.50;;;0.20;99.90;;;;;;5126819;27;20036;-68
2021/12/27 01:58:08;;;;;;;19.58;11.80;;;0.20;99.90;;;;;;5075903;28;20067;-68
2021/12/27 02:00:37;;;;;;;17.90;11.02;;;0.20;99.90;;;;;;5093117;28;20036;-68
2021/12/27 02:03:03;;;;;;;18.77;11.93;;;0.30;99.90;;;;;;5092578;28;20036;-68
2021/12/27 02:05:30;;;;;;;18.48;11.50;;;0.20;99.90;;;;;;5110835;27;20039;-68
2021/12/27 02:07:55;;;;;;;20.75;11.93;;;0.30;99.90;;;;;;5075603;28;20036;-68
2021/12/27 02:10:21;;;;;;;20.35;12.05;;;0.10;99.90;;;;;;5094348;28;20036;-68
2021/12/27 02:12:46;;;;;;;19.02;11.10;;;0.10;99.90;;;;;;5145036;27;20038;-68
2021/12/27 02:15:13;;;;;;;21.45;12.25;;;0.20;99.90;;;;;;5109098;28;20437;-68
2021/12/27 02:17:41;;;;;;;19.90;11.27;;;0.20;99.90;;;;;;5075140;28;20043;-68
2021/12/27 02:20:18;;;;;;;19.13;12.20;;;0.20;99.90;;;;;;5092352;28;20040;-68
2021/12/27 02:22:45;;;;;;;19.83;12.40;;;0.20;99.90;;;;;;5075416;28;20044;-68
2021/12/27 02:25:13;;;;;;;17.67;11.15;;;0.20;99.90;;;;;;5091866;28;20032;-68
2021/12/27 02:27:39;;;;;;;18.98;11.23;;;0.30;99.90;;;;;;5112358;28;20563;-68
2021/12/27 02:30:08;;;;;;;21.10;11.80;;;0.30;99.90;;;;;;5112519;28;20043;-68
2021/12/27 02:32:45;;;;;;;20.50;12.60;;;0.30;99.90;;;;;;5078205;28;20043;-68
2021/12/27 02:35:14;;;;;;;18.67;11.73;;;0.30;99.90;;;;;;5075566;28;20040;-68
2021/12/27 02:37:39;;;;;;;20.80;12.32;;;0.40;99.90;;;;;;5110771;28;20039;-68
2021/12/27 02:40:06;;;;;;;18.48;11.48;;;0.30;99.90;;;;;;5129439;27;20045;-68
2021/12/27 02:42:31;;;;;;;21.73;12.93;;;0.30;99.90;;;;;;5077608;28;20055;-69
2021/12/27 02:44:57;;;;;;;20.90;11.85;;;0.20;99.90;;;;;;5075274;28;20036;-68
2021/12/27 02:47:22;;;;;;;20.95;12.32;;;0.30;99.90;;;;;;5096426;28;20038;-68
2021/12/27 02:49:48;;;;;;;20.40;12.15;;;0.30;99.90;;;;;;5075203;28;20036;-68
2021/12/27 02:52:13;;;;;;;22.48;12.82;;;0.20;99.90;;;;;;5092124;28;20071;-68
2021/12/27 02:54:44;;;;;;;23.08;12.70;;;0.30;99.90;;;;;;5122836;28;20098;-68
2021/12/27 02:57:10;;;;;;;20.00;11.82;;;0.30;99.90;;;;;;5112284;28;20040;-68
2021/12/27 02:59:36;;;;;;;18.65;10.80;;;0.30;99.90;;;;;;5127464;27;20571;-68
2021/12/27 03:02:02;;;;;;;22.45;12.15;;;0.30;99.90;;;;;;5129435;28;20043;-68
2021/12/27 03:04:34;;;;;;;20.73;12.27;;;0.30;99.90;;;;;;5093461;28;20395;-68
2021/12/27 03:06:59;;;;;;;;;;;0.30;99.90;;;;;;5102181;28;20035;-68
2021/12/27 03:09:27;;;;;;;20.70;12.52;;;0.20;99.90;;;;;;5112173;28;20477;-68
2021/12/27 03:11:53;;;;;;;18.92;11.27;;;0.10;99.90;;;;;;5111164;28;20032;-68
2021/12/27 03:14:20;;;;;;;22.05;13.65;;;0.20;99.90;;;;;;5109869;28;20119;-68
2021/12/27 03:16:46;;;;;;;20.38;12.52;;;0.20;99.90;;;;;;5110838;28;20088;-68
2021/12/27 03:19:12;;;;;;;20.23;12.20;;;0.30;99.90;;;;;;5112053;28;20036;-68
2021/12/27 03:21:38;;;;;;;18.45;11.38;;;0.30;99.90;;;;;;5111062;28;20039;-68
2021/12/27 03:24:03;;;;;;;19.42;11.48;;;0.40;99.90;;;;;;5146353;27;20042;-68
2021/12/27 03:26:29;;;;;;;20.92;12.45;;;0.40;99.90;;;;;;5091848;28;20035;-69
2021/12/27 03:28:55;;;;;;;17.02;11.60;;;0.50;99.90;;;;;;5091924;28;20068;-68
2021/12/27 03:31:20;;;;;;;21.90;12.10;;;0.40;99.90;;;;;;5078569;28;20039;-68
2021/12/27 03:33:46;;;;;;;18.90;11.18;;;0.50;99.90;;;;;;5096756;28;20047;-68
2021/12/27 03:36:12;;;;;;;19.40;11.13;;;0.50;99.90;;;;;;5079441;28;20024;-68
2021/12/27 03:38:49;;;;;;;21.30;12.70;;;0.40;99.90;;;;;;5095404;28;20032;-68
2021/12/27 03:41:19;;;;;;;23.05;13.07;;;0.50;99.90;;;;;;5129239;27;20052;-69
2021/12/27 03:43:44;;;;;;;20.55;11.85;;;0.40;99.90;;;;;;5096115;28;20054;-68
2021/12/27 03:46:10;;;;;;;20.60;11.50;;;0.40;99.90;;;;;;5084450;28;20119;-68
2021/12/27 03:48:36;;;;;;;18.83;12.40;;;0.50;99.90;;;;;;5110279;28;20051;-69
2021/12/27 03:51:02;;;;;;;20.58;12.35;;;0.60;99.90;;;;;;5102479;28;20090;-68
2021/12/27 03:53:29;;;;;;;20.70;12.68;;;0.60;99.90;;;;;;5094378;28;20480;-68
2021/12/27 03:55:55;;;;;;;20.70;12.15;;;0.50;99.90;;;;;;5095054;28;20082;-68
2021/12/27 03:59:19;;;;;;;20.65;11.95;;;0.50;99.90;;;;;;5078050;28;20036;-68
2021/12/27 04:01:16;;;;;;;21.45;12.48;;;0.50;99.90;;;;;;5086637;28;20105;-68
2021/12/27 04:03:47;;;;;;;22.88;12.63;;;0.70;99.90;;;;;;5095847;28;20051;-68
2021/12/27 04:06:15;;;;;;;19.40;12.73;;;0.50;99.90;;;;;;5098497;28;20543;-68
2021/12/27 04:08:41;;;;;;;21.48;12.60;;;0.50;99.90;;;;;;5142491;27;20377;-68
2021/12/27 04:11:07;;;;;;;22.20;13.13;;;0.40;99.90;;;;;;5111705;28;20036;-68
2021/12/27 04:13:33;;;;;;;21.38;13.35;;;0.60;99.90;;;;;;5094883;28;20129;-68
2021/12/27 04:15:59;;;;;;;23.73;13.85;;;0.60;99.90;;;;;;5112743;28;20082;-68
2021/12/27 04:18:25;;;;;;;20.70;13.32;;;0.50;99.90;;;;;;5114335;28;20143;-68
2021/12/27 04:20:51;;;;;;;20.83;12.10;;;0.50;99.90;;;;;;5132037;27;20071;-68
2021/12/27 04:23:17;;;;;;;22.88;13.05;;;0.60;99.90;;;;;;5132237;27;20040;-68
2021/12/27 04:25:42;;;;;;;20.05;13.10;;;0.50;99.90;;;;;;5128858;27;20044;-68
2021/12/27 04:28:09;;;;;;;22.27;13.38;;;0.40;99.90;;;;;;5091412;28;20035;-69
2021/12/27 04:30:34;;;;;;;23.33;12.98;;;0.50;99.90;;;;;;5114790;28;20043;-68
2021/12/27 04:33:00;;;;;;;21.50;13.55;;;0.50;99.90;;;;;;5118749;27;20122;-69
2021/12/27 04:35:26;;;;;;;20.58;12.82;;;0.50;99.90;;;;;;5094212;28;20040;-69
2021/12/27 04:37:51;;;;;;;22.98;13.15;;;0.50;99.90;;;;;;5128394;27;20039;-68
2021/12/27 04:40:20;;;;;;;21.55;13.25;;;0.50;99.90;;;;;;5096069;28;20035;-68
2021/12/27 04:42:50;;;;;;;20.33;13.10;;;0.50;99.90;;;;;;5114421;28;20064;-68
2021/12/27 04:45:16;;;;;;;22.73;13.52;;;0.60;99.90;;;;;;5092710;28;20039;-69
2021/12/27 04:47:43;;;;;;;20.02;11.18;;;0.50;99.90;;;;;;5130830;27;20403;-68
2021/12/27 04:50:09;;;;;;;22.45;13.68;;;0.60;99.90;;;;;;5113440;28;20044;-69
2021/12/27 04:52:34;;;;;;;22.92;12.85;;;0.60;99.90;;;;;;5140975;27;20040;-68
2021/12/27 04:55:00;;;;;;;22.42;13.77;;;0.60;99.90;;;;;;5128129;27;20040;-68
2021/12/27 04:57:26;;;;;;;21.83;12.75;;;0.70;99.90;;;;;;5076992;28;20047;-69
2021/12/27 04:59:51;;;;;;;19.58;11.75;;;0.70;99.90;;;;;;5109632;28;20042;-68
2021/12/27 05:02:17;;;;;;;22.20;13.00;;;0.80;99.90;;;;;;5131224;27;20043;-68
2021/12/27 05:04:42;;;;;;;22.58;13.27;;;0.80;99.90;;;;;;5147073;27;20130;-69
2021/12/27 05:07:08;;;;;;;21.33;12.70;;;0.60;99.90;;;;;;5148642;27;20036;-69
2021/12/27 05:09:34;;;;;;;21.20;13.80;;;0.70;99.90;;;;;;5133181;27;20028;-68
2021/12/27 05:11:59;;;;;;;22.10;13.43;;;0.70;99.90;;;;;;5093498;28;20044;-68
2021/12/27 05:14:25;;;;;;;20.77;13.13;;;0.70;99.90;;;;;;5109951;27;20087;-69
2021/12/27 05:16:50;;;;;;;24.25;13.85;;;0.90;99.90;;;;;;5121637;27;20115;-69
2021/12/27 05:19:16;;;;;;;21.15;11.80;;;0.70;99.90;;;;;;5147430;27;20078;-68
2021/12/27 05:21:42;;;;;;;23.23;12.80;;;0.80;99.90;;;;;;5144217;27;20044;-68
2021/12/27 05:24:08;;;;;;;21.17;12.32;;;0.80;99.90;;;;;;5093228;28;20036;-69
2021/12/27 05:26:33;;;;;;;23.45;14.13;;;0.80;99.90;;;;;;5077711;28;20400;-69
2021/12/27 05:28:59;;;;;;;21.08;12.80;;;0.80;99.90;;;;;;5113550;28;20061;-69
2021/12/27 05:31:25;;;;;;;21.27;13.13;;;0.90;99.90;;;;;;5096265;28;20070;-69
2021/12/27 05:33:51;;;;;;;21.95;12.00;;;0.90;99.90;;;;;;5109762;28;20476;-68
2021/12/27 05:36:17;;;;;;;24.40;14.85;;;0.90;99.90;;;;;;5107859;28;20122;-69
2021/12/27 05:38:42;;;;;;;17.60;9.45;;;0.80;99.90;;;;;;5113383;28;20130;-69
2021/12/27 05:41:08;;;;;;;23.00;13.95;;;0.80;99.90;;;;;;5116193;27;20122;-69
2021/12/27 05:43:34;;;;;;;20.80;12.38;;;0.90;99.90;;;;;;5075939;28;20144;-69
2021/12/27 05:46:00;;;;;;;22.90;13.60;;;0.90;99.90;;;;;;5109542;27;20044;-69
2021/12/27 05:48:26;;;;;;;23.45;13.48;;;0.90;99.90;;;;;;5109673;28;20050;-68
2021/12/27 05:50:51;;;;;;;24.10;14.20;;;0.90;99.90;;;;;;5093420;28;20114;-68
2021/12/27 05:53:17;;;;;;;21.23;12.82;;;0.80;99.90;;;;;;5103154;28;20136;-69
2021/12/27 05:55:44;;;;;;;23.40;12.45;;;0.90;99.90;;;;;;5112118;28;20042;-68
2021/12/27 05:58:10;;;;;;;22.88;13.85;;;1.00;99.90;;;;;;5113094;28;20118;-69
2021/12/27 06:00:36;;;;;;;24.58;15.07;;;0.80;99.90;;;;;;5090475;28;20123;-69
2021/12/27 06:03:02;;;;;;;24.42;13.90;;;0.80;99.90;;;;;;5092593;28;20044;-69
2021/12/27 06:05:28;;;;;;;21.15;13.13;;;0.80;99.90;;;;;;5100168;28;20130;-69
2021/12/27 06:07:54;;;;;;;20.85;13.55;;;0.80;99.90;;;;;;5130146;27;20404;-69
2021/12/27 06:10:20;;;;;;;24.90;13.75;;;0.80;99.90;;;;;;5105693;28;20043;-69
2021/12/27 06:12:46;;;;;;;25.08;14.35;;;0.80;99.90;;;;;;5092586;28;20138;-69
2021/12/27 06:15:13;;;;;;;24.08;14.00;;;0.90;99.90;;;;;;5083580;28;20036;-69
2021/12/27 06:17:39;;;;;;;23.63;13.40;;;0.80;99.90;;;;;;5075550;28;20032;-69
2021/12/27 06:20:08;;;;;;;24.63;14.40;;;0.90;99.90;;;;;;5075846;28;20435;-69
2021/12/27 06:22:35;;;;;;;22.60;13.98;;;0.80;99.90;;;;;;5100108;28;20093;-69
2021/12/27 06:25:03;;;;;;;22.35;13.45;;;0.80;99.90;;;;;;5094733;28;20036;-69
2021/12/27 06:27:32;;;;;;;22.83;13.73;;;0.90;99.90;;;;;;5121888;27;20046;-69
2021/12/27 06:30:00;;;;;;;28.00;14.40;;;0.80;99.90;;;;;;5092464;28;20110;-69
2021/12/27 06:32:26;;;;;;;24.70;12.82;;;0.80;99.90;;;;;;5092863;28;20510;-69
2021/12/27 06:34:52;;;;;;;23.60;14.05;;;0.80;99.90;;;;;;5092183;28;20044;-69
2021/12/27 06:37:18;;;;;;;25.23;14.48;;;0.90;99.90;;;;;;5096438;28;20046;-69
2021/12/27 06:39:43;;;;;;;26.63;14.18;;;0.90;99.90;;;;;;5103134;28;20032;-69
2021/12/27 06:42:09;;;;;;;21.70;12.02;;;0.90;99.90;;;;;;5111336;28;20048;-69
2021/12/27 06:44:34;;;;;;;25.75;12.77;;;1.00;99.90;;;;;;5141523;27;20114;-69
2021/12/27 06:47:00;;;;;;;25.60;14.05;;;1.00;99.90;;;;;;5146727;27;20430;-69
2021/12/27 06:49:31;;;;;;;24.75;14.32;;;0.90;99.90;;;;;;5138940;27;20039;-69
2021/12/27 06:51:57;;;;;;;23.10;13.20;;;1.00;99.90;;;;;;5108992;28;20081;-69
2021/12/27 06:54:23;;;;;;;25.20;14.13;;;0.90;99.90;;;;;;5081602;28;20035;-69
2021/12/27 06:56:49;;;;;;;24.30;14.20;;;0.90;99.90;;;;;;5112236;28;20032;-69
2021/12/27 06:59:15;;;;;;;22.05;13.20;;;0.90;99.90;;;;;;5093581;28;20123;-69
2021/12/27 07:01:41;;;;;;;24.27;13.65;;;0.90;99.90;;;;;;5127097;28;20101;-69
2021/12/27 07:04:07;;;;;;;23.55;13.50;;;1.00;99.90;;;;;;5105792;28;20487;-69
2021/12/27 07:06:32;;;;;;;28.83;15.15;;;1.10;99.90;;;;;;5150643;27;20067;-69
2021/12/27 07:08:58;;;;;;;23.48;13.32;;;1.10;99.90;;;;;;5130511;27;20433;-69
2021/12/27 07:11:24;;;;;;;26.88;13.90;;;1.10;99.90;;;;;;5150905;27;20066;-69
2021/12/27 07:13:49;;;;;;;24.95;13.60;;;1.10;99.90;;;;;;5137423;27;20028;-69
2021/12/27 07:16:15;;;;;;;25.77;14.35;;;1.10;99.90;;;;;;5129724;27;20040;-69
2021/12/27 07:18:41;;;;;;;23.63;13.57;;;1.10;99.90;;;;;;5129732;27;20036;-69
2021/12/27 07:21:06;;;;;;;23.52;14.70;;;1.10;99.90;;;;;;5122765;27;20043;-69
2021/12/27 07:23:32;;;;;;;26.63;14.95;;;1.10;99.90;;;;;;5148965;27;20043;-69
2021/12/27 07:25:57;;;;;;;23.10;14.23;;;1.10;99.90;;;;;;5150526;27;20098;-69
2021/12/27 07:28:23;;;;;;;24.27;14.38;;;1.10;99.90;;;;;;5142638;27;20070;-69
2021/12/27 07:30:49;;;;;;;24.88;13.90;;;1.00;99.90;;;;;;5112338;28;20080;-69
2021/12/27 07:33:14;;;;;;;23.52;13.73;;;1.10;99.90;;;;;;5116510;27;20043;-69
2021/12/27 07:35:40;;;;;;;21.65;12.52;;;1.00;99.90;;;;;;5140349;27;20133;-69
2021/12/27 07:38:07;;;;;;;23.08;13.63;;;1.00;99.90;;;;;;5119867;27;20547;-69
2021/12/27 07:40:32;;;;;;;25.33;15.55;;;1.10;99.90;;;;;;5096270;28;20491;-69
2021/12/27 07:42:58;;;;;;;25.52;15.13;;;1.10;99.90;;;;;;5114096;27;20044;-69
2021/12/27 07:45:24;;;;;;;25.95;13.32;;;1.10;99.90;;;;;;5144624;27;20510;-69
2021/12/27 07:47:51;;;;;;;22.50;13.07;;;1.10;99.90;;;;;;5132759;27;20484;-69
2021/12/27 07:50:17;;;;;;;23.77;14.98;;;1.10;99.90;;;;;;5132290;27;20040;-69
2021/12/27 07:52:42;;;;;;;22.85;12.98;;;1.00;99.90;;;;;;5098069;28;20449;-69
2021/12/27 07:55:09;;;;;;;23.90;14.10;;;1.00;99.90;;;;;;5093990;28;20114;-69
2021/12/27 07:57:35;;;;;;;26.33;15.32;;;1.00;99.90;;;;;;5097903;28;20513;-69
2021/12/27 08:00:02;;;;;;;26.40;14.48;;;1.00;99.90;;;;;;5114503;28;20396;-69
2021/12/27 08:02:29;;;;;;;23.65;13.75;;;1.10;99.90;;;;;;5115089;28;20035;-69
2021/12/27 08:04:55;;;;;;;24.35;14.00;;;1.20;99.90;;;;;;5096942;28;20071;-69
2021/12/27 08:07:21;;;;;;;29.23;15.85;;;1.20;99.90;;;;;;5097368;28;20035;-69
2021/12/27 08:09:46;;;;;;;24.63;14.43;;;1.20;99.90;;;;;;5085865;28;20032;-69
2021/12/27 08:12:14;;;;;;;25.08;14.30;;;1.10;99.90;;;;;;5110113;27;20040;-69
2021/12/27 08:14:40;;;;;;;24.38;13.82;;;1.10;99.90;;;;;;5100737;28;20099;-69
2021/12/27 08:17:06;;;;;;;26.75;14.18;;;1.10;99.90;;;;;;5095723;28;20035;-69
2021/12/27 08:19:33;;;;;;;27.00;14.25;;;1.20;99.90;;;;;;5108728;28;20027;-69
2021/12/27 08:21:59;;;;;;;24.23;12.43;;;1.20;99.90;;;;;;5113511;28;20051;-69
2021/12/27 08:24:24;;;;;;;27.85;14.45;;;1.40;99.90;;;;;;5081858;28;20119;-73
2021/12/27 08:26:50;;;;;;;27.27;15.05;;;1.40;99.90;;;;;;5118555;27;20165;-70
2021/12/27 08:29:17;;;;;;;30.38;15.68;;;1.30;99.90;;;;;;5145302;27;20076;-70
2021/12/27 08:31:42;;;;;;;27.05;14.63;;;1.40;99.90;;;;;;5086429;28;20491;-70
2021/12/27 08:34:08;;;;;;;26.63;14.73;;;1.30;99.90;;;;;;5126433;27;20119;-72
2021/12/27 08:36:34;;;;;;;28.02;14.52;;;1.40;99.90;;;;;;5102500;28;20110;-71
2021/12/27 08:38:59;;;;;;;29.75;14.88;;;1.30;99.90;;;;;;5096180;28;20039;-70
2021/12/27 08:41:27;;;;;;;32.20;15.15;;;1.40;99.90;;;;;;5088156;28;20099;-70
2021/12/27 08:44:05;;;;;;;27.50;15.25;;;1.30;99.90;;;;;;5118616;27;20134;-71
2021/12/27 08:46:32;;;;;;;26.58;14.30;;;1.20;99.90;;;;;;5102036;27;20366;-71
2021/12/27 08:48:57;;;;;;;26.75;14.82;;;1.30;99.90;;;;;;5089768;28;20039;-71
2021/12/27 08:51:23;;;;;;;30.83;15.75;;;1.40;99.90;;;;;;5107148;28;20557;-70
2021/12/27 08:53:49;;;;;;;29.17;14.25;;;1.30;99.90;;;;;;5086112;28;20040;-70
2021/12/27 08:56:16;;;;;;;28.67;14.80;;;1.20;99.90;;;;;;5115105;27;20040;-70
2021/12/27 08:58:42;;;;;;;30.40;15.05;;;1.20;99.90;;;;;;5112159;28;20039;-71
2021/12/27 09:01:07;;;;;;;30.02;14.90;;;1.30;99.90;;;;;;5094166;28;20042;-70
2021/12/27 09:03:34;;;;;;;30.67;16.33;;;1.40;99.90;;;;;;5147326;27;20055;-70
2021/12/27 09:05:59;;;;;;;30.88;16.00;;;1.40;99.90;;;;;;5093714;28;20083;-70
2021/12/27 09:08:25;;;;;;;27.73;16.13;;;1.50;99.90;;;;;;5081454;28;20043;-70
2021/12/27 09:10:51;;;;;;;27.85;13.98;;;1.40;99.90;;;;;;5120913;27;20120;-71
2021/12/27 09:13:16;;;;;;;32.10;15.38;;;1.40;99.90;;;;;;5105204;28;20440;-70
2021/12/27 09:15:42;;;;;;;30.27;16.00;;;1.40;99.90;;;;;;5124488;27;20036;-71
2021/12/27 09:18:07;;;;;;;32.25;15.77;;;1.40;99.90;;;;;;5130183;27;20040;-71
2021/12/27 09:20:33;;;;;;;30.50;16.05;;;1.40;99.90;;;;;;5120961;27;20039;-71
2021/12/27 09:22:58;;;;;;;27.35;14.70;;;1.40;99.90;;;;;;5146526;27;20047;-71
2021/12/27 09:25:24;;;;;;;32.35;16.02;;;1.50;99.90;;;;;;5127223;27;20039;-71
2021/12/27 09:27:50;;;;;;;30.95;16.02;;;1.40;99.90;;;;;;5128500;27;20043;-71
2021/12/27 09:30:16;;;;;;;29.90;16.27;;;1.40;99.90;;;;;;5103545;28;20063;-71
2021/12/27 09:32:42;;;;;;;30.90;14.98;;;1.40;99.90;;;;;;5100028;28;20028;-71
2021/12/27 09:35:08;;;;;;;31.77;16.13;;;1.40;99.90;;;;;;5101965;28;20516;-71
2021/12/27 09:37:34;;;;;;;30.98;15.45;;;1.40;99.90;;;;;;5109530;27;20031;-71
2021/12/27 09:40:00;;;;;;;32.33;17.88;;;1.40;99.90;;;;;;5081081;28;20039;-71
2021/12/27 09:42:27;;;;;;;34.90;17.23;;;1.50;99.90;;;;;;5145315;27;20610;-71
2021/12/27 09:44:54;;;;;;;33.42;16.25;;;1.40;99.90;;;;;;5103821;28;20055;-71
2021/12/27 09:47:20;;;;;;;38.90;16.23;;;1.50;99.90;;;;;;5105145;28;20499;-71
2021/12/27 09:49:47;;;;;;;33.33;16.55;;;1.50;99.90;;;;;;5108139;28;20023;-71
2021/12/27 09:52:13;;;;;;;35.50;16.35;;;1.60;99.90;;;;;;5094151;28;20128;-71
2021/12/27 09:54:39;;;;;;;37.30;16.88;;;1.50;99.90;;;;;;5103837;28;20119;-71
2021/12/27 09:57:05;;;;;;;32.28;16.83;;;1.50;99.90;;;;;;5103245;28;20031;-71
2021/12/27 09:59:31;;;;;;;33.22;16.88;;;1.60;99.90;;;;;;5105896;28;20050;-71
2021/12/27 10:01:56;;;;;;;32.50;15.20;;;1.50;99.90;;;;;;5084722;28;20027;-71
2021/12/27 10:04:22;;;;;;;30.98;16.90;;;1.50;99.90;;;;;;5109123;28;20084;-71
2021/12/27 10:06:48;;;;;;;32.33;16.90;;;1.50;99.90;;;;;;5112019;28;20493;-71
2021/12/27 10:09:14;;;;;;;37.25;17.52;;;1.50;99.90;;;;;;5105328;28;20043;-71
2021/12/27 10:11:42;;;;;;;38.55;18.15;;;1.50;99.90;;;;;;5074033;28;20071;-71
2021/12/27 10:14:10;;;;;;;38.45;16.88;;;1.50;99.90;;;;;;5142699;27;20096;-71
2021/12/27 10:16:45;;;;;;;37.95;17.38;;;1.70;99.90;;;;;;5094853;28;20035;-71
2021/12/27 10:19:15;;;;;;;39.15;18.52;;;1.70;99.90;;;;;;5077871;28;20063;-71
2021/12/27 10:21:42;;;;;;;37.42;17.00;;;1.60;99.90;;;;;;5103089;28;20098;-71
2021/12/27 10:24:16;;;;;;;38.10;15.57;;;1.70;99.90;;;;;;5083033;28;20181;-71
2021/12/27 10:26:50;;;;;;;40.20;18.08;;;1.80;99.90;;;;;;5090950;28;20047;-71
2021/12/27 10:29:26;;;;;;;40.08;16.48;;;1.70;99.90;;;;;;5102449;28;20072;-71
2021/12/27 10:32:10;;;;;;;38.83;17.65;;;1.80;99.90;;;;;;5092251;28;20487;-71
2021/12/27 10:34:53;;;;;;;40.97;17.88;;;1.80;99.90;;;;;;5111136;28;20108;-71
2021/12/27 10:37:22;;;;;;;;;;;1.70;99.90;;;;;;5108444;28;20097;-72
2021/12/27 10:39:57;;;;;;;37.95;17.63;;;1.80;99.90;;;;;;5103150;28;20041;-71
2021/12/27 10:42:28;;;;;;;39.80;16.25;;;1.80;99.90;;;;;;5084857;28;20130;-71
2021/12/27 10:45:00;;;;;;;41.53;17.17;;;1.80;99.90;;;;;;5087494;28;20035;-71
2021/12/27 10:47:29;;;;;;;40.95;19.15;;;1.90;99.90;;;;;;5110958;28;20114;-71
2021/12/27 10:50:02;;;;;;;46.38;18.92;;;1.80;99.90;;;;;;5109460;28;20459;-71
2021/12/27 10:52:46;;;;;;;50.10;20.20;;;1.80;99.90;;;;;;5111021;28;20402;-71
2021/12/27 10:55:13;;;;;;;44.20;19.17;;;1.80;99.90;;;;;;5094688;28;20531;-72
2021/12/27 10:57:39;;;;;;;46.42;19.88;;;1.80;99.90;;;;;;5089803;28;20043;-72
2021/12/27 11:00:27;;;;;;;46.70;19.63;;;1.90;99.90;;;;;;5130030;27;20046;-72
2021/12/27 11:02:54;;;;;;;48.00;18.63;;;1.90;99.90;;;;;;5088651;28;20071;-72
2021/12/27 11:05:25;;;;;;;41.50;16.90;;;1.80;99.90;;;;;;5076377;28;20072;-72
2021/12/27 11:07:59;;;;;;;43.40;18.02;;;2.00;99.90;;;;;;5112155;28;20097;-72
2021/12/27 11:10:25;;;;;;;44.10;19.33;;;2.00;99.90;;;;;;5093869;28;20039;-72
2021/12/27 11:12:51;;;;;;;48.08;19.25;;;1.90;99.90;;;;;;5111061;28;20096;-72
2021/12/27 11:15:17;;;;;;;43.00;17.25;;;1.90;99.90;;;;;;5094672;28;20040;-72
2021/12/27 11:17:44;;;;;;;38.78;16.98;;;1.90;99.90;;;;;;5126399;27;20369;-72
2021/12/27 11:20:11;;;;;;;41.38;17.35;;;2.00;99.90;;;;;;5091749;28;20072;-72
2021/12/27 11:22:44;;;;;;;40.42;18.27;;;2.10;99.90;;;;;;5108916;28;20071;-72
2021/12/27 11:25:27;;;;;;;42.50;18.23;;;2.10;99.90;;;;;;5094558;28;20031;-72
2021/12/27 11:27:54;;;;;;;40.78;16.75;;;2.20;99.90;;;;;;5107710;28;20119;-72
2021/12/27 11:30:23;;;;;;;41.13;18.23;;;2.10;99.90;;;;;;5074651;28;20484;-72
2021/12/27 11:33:16;;;;;;;41.60;18.15;;;2.10;99.90;;;;;;5112037;28;20054;-72
2021/12/27 11:35:51;;;;;;;43.03;18.70;;;2.10;99.90;;;;;;5144993;27;20027;-72
2021/12/27 11:38:41;;;;;;;41.80;16.75;;;2.10;99.90;;;;;;5094286;28;20071;-72
2021/12/27 11:41:31;;;;;;;44.17;17.38;;;2.10;99.90;;;;;;5104734;28;20100;-72
2021/12/27 11:44:02;;;;;;;39.15;18.70;;;2.10;99.90;;;;;;5075457;28;20045;-72
2021/12/27 11:46:31;;;;;;;45.35;17.13;;;2.20;99.90;;;;;;5109045;28;20039;-72
2021/12/27 11:48:59;;;;;;;44.92;18.15;;;2.30;99.90;;;;;;5080517;28;20039;-72
2021/12/27 11:51:34;;;;;;;38.88;17.85;;;2.30;99.90;;;;;;5095769;28;20040;-72
2021/12/27 11:54:02;;;;;;;29.58;12.90;;;2.40;99.90;;;;;;5114783;28;20050;-72
2021/12/27 11:56:37;;;;;;;40.08;18.38;;;2.40;99.90;;;;;;5098303;28;20035;-72
2021/12/27 11:59:22;;;;;;;44.00;20.02;;;2.40;99.90;;;;;;5112365;28;20075;-72
2021/12/27 12:01:49;;;;;;;38.30;18.77;;;2.30;99.90;;;;;;5094159;28;20524;-72
2021/12/27 12:04:45;;;;;;;39.08;18.08;;;2.30;99.90;;;;;;5102232;27;20050;-72
2021/12/27 12:07:32;;;;;;;41.03;17.70;;;2.40;99.90;;;;;;5094283;28;20127;-72
2021/12/27 12:09:58;;;;;;;44.83;16.83;;;2.30;99.90;;;;;;5070085;28;20040;-72
2021/12/27 12:12:24;;;;;;;44.05;19.42;;;2.30;99.90;;;;;;5089403;28;20157;-72
2021/12/27 12:15:00;;;;;;;54.08;21.63;;;2.20;99.90;;;;;;5077312;28;20071;-72
2021/12/27 12:17:36;;;;;;;50.83;20.38;;;2.20;99.90;;;;;;5095324;28;20044;-72
2021/12/27 12:20:03;;;;;;;48.55;20.95;;;2.20;99.90;;;;;;5114708;28;20044;-72
2021/12/27 12:22:38;;;;;;;44.78;19.50;;;2.10;99.90;;;;;;5091709;28;20391;-72
2021/12/27 12:25:11;;;;;;;46.38;21.15;;;2.20;99.90;;;;;;5093796;28;20032;-72
2021/12/27 12:27:36;;;;;;;57.05;24.02;;;2.20;99.90;;;;;;5111341;28;20047;-72
2021/12/27 12:30:03;;;;;;;52.35;21.10;;;2.20;99.90;;;;;;5128335;27;20032;-72
2021/12/27 12:32:28;;;;;;;52.63;21.45;;;2.20;99.90;;;;;;5129904;27;20039;-72
2021/12/27 12:34:54;;;;;;;52.03;21.33;;;2.20;99.90;;;;;;5112916;28;20034;-72
2021/12/27 12:37:19;;;;;;;45.00;21.02;;;2.20;99.90;;;;;;5105176;28;20560;-72
2021/12/27 12:39:49;;;;;;;48.10;19.02;;;2.20;99.90;;;;;;5077506;28;20518;-72
2021/12/27 12:42:15;;;;;;;44.33;18.10;;;2.30;99.90;;;;;;5131725;27;20532;-72